x

South Nomad (46036) Wave Buoy

7:00am - Fri 24th Nov 2017 All times are UTC.

  • Sig Wave height 13.4ft
  • Peak Period 8s
  • Wind
    29mph, 36mph gusts
  • Sea Temp 52°f
  • Air Temp 50°f
  • Sea Pressure 1004.7mb

More Historic Weather Station data

Upgrade to MSW Pro to gain access to the past 30 days of data for over 8000 Wavebouys and Weather Stations around the globe.

Join

Comparision Forecast

View Surf forecast
   
Fri 11/24 7:00am 13.5ft 8s 29 36 mph 1004.7mb 52f 50f
6:00am 12.5ft 8s 27 36 mph 1005.2mb 52f 50f
5:00am 12ft 8s 27 36 mph 1005.5mb 52f 50f
4:00am 12ft 8s 29 38 mph 1005.6mb 52f 50f
3:00am 11ft 8s 27 34 mph 1005.9mb 52f 50f
2:00am 10.5ft 10s 27 34 mph 1006.3mb 52f 50f
1:00am 11ft 7s 27 31 mph 1006.7mb 52f 49f
12:00am 11.5ft 8s 27 31 mph 1007.3mb 52f 49f
Thu 11/23 11:00pm 11ft 10s 27 34 mph 1007.5mb 52f 49f
10:00pm 11ft 11s 22 29 mph 1008.2mb 52f 47f
9:00pm 11ft 10s 22 29 mph 1008.7mb 52f 48f
8:00pm 11ft 10s 22 27 mph 1009.2mb 52f 48f
7:00pm 11.5ft 11s 22 36 mph 1009.7mb 52f 48f
6:00pm 12ft 10s 20 25 mph 1009.5mb 52f 48f
5:00pm 11.5ft 9s 22 27 mph 1008.8mb 52f 49f
4:00pm 11ft 10s 25 29 mph 1008mb 52f 49f
3:00pm 12ft 11s 27 31 mph 1006.9mb 52f 48f
2:00pm 12ft 9s 25 34 mph 1005.9mb 52f 49f
1:00pm 11.5ft 10s 27 36 mph 1004.6mb 52f 49f
12:00pm 12.5ft 10s 20 27 mph 1003.7mb 52f 49f
10:00am 13ft 10s 22 27 mph 1000.6mb 52f 49f
9:00am 13.5ft 10s 16 20 mph 999.3mb 52f 50f
8:00am 12.5ft 10s 20 27 mph 999.2mb 52f 51f
7:00am 13ft 11s 25 31 mph 998.9mb 52f 51f
6:00am 12.5ft 10s 22 29 mph 998.4mb 52f 51f
5:00am 12.5ft 10s 25 31 mph 997.9mb 52f 50f
4:00am 13ft 10s 25 31 mph 996.9mb 52f 50f
3:00am 12.5ft 10s 27 31 mph 995.6mb 52f 50f
2:00am 13ft 11s 31 40 mph 993.9mb 52f 49f
1:00am 12.5ft 11s 40 51 mph 990.9mb 52f 48f
12:00am 10.5ft 11s 31 38 mph 991mb 52f 49f
Wed 11/22 11:00pm 12ft 10s 25 31 mph 991.1mb 52f 53f
10:00pm 10.5ft 12s 20 25 mph 991.8mb 52f 54f
9:00pm 11ft 11s 18 22 mph 992.4mb 52f 53f
8:00pm 12ft 11s 22 29 mph 992.6mb 52f 52f
7:00pm 11.5ft 10s 13 18 mph 993mb 52f 52f
6:00pm 11ft 10s 18 22 mph 994.5mb 52f 51f
5:00pm 11.5ft 9s 18 22 mph 994.8mb 52f 51f
4:00pm 11.5ft 9s 16 20 mph 995.3mb 52f 51f
3:00pm 10.5ft 11s 11 18 mph 995.1mb 52f 51f
2:00pm 11.5ft 10s 13 18 mph 996mb 52f 51f
1:00pm 11ft 10s 13 18 mph 996.5mb 52f 51f
12:00pm 11.5ft 14s 13 16 mph 996.4mb 52f 51f
11:00am 11ft 9s 16 20 mph 996.1mb 52f 51f
10:00am 12ft 9s 18 22 mph 996.1mb 52f 50f
2:00am 14.5ft 10s 20 27 mph 991.2mb 52f 53f
1:00am 13ft 10s 22 27 mph 990.7mb 52f 53f
12:00am 13ft 9s 22 27 mph 990.4mb 52f 53f
Tue 11/21 11:00pm 13ft 10s 16 18 mph 989.5mb 52f 53f
10:00pm 14ft 8s 18 20 mph 989.2mb 52f 53f
9:00pm 13ft 9s 18 20 mph 988.7mb 52f 53f
8:00pm 14ft 14s 18 22 mph 988.1mb 52f 54f
7:00pm 13.5ft 9s 13 18 mph 987.8mb 52f 54f
6:00pm 14ft 10s 13 18 mph 988.4mb 52f 53f
5:00pm 15.5ft 9s 16 20 mph 988.4mb 52f 53f
4:00pm 15.5ft 8s 22 31 mph 989.3mb 52f 53f
3:00pm 14ft 14s 27 36 mph 990mb 52f 52f
2:00pm 12.5ft 14s 27 34 mph 991.4mb 52f 51f
1:00pm 11ft 14s 27 34 mph 993.4mb 52f 50f
12:00pm 10ft 14s 27 36 mph 995.3mb 52f 49f
11:00am 9ft 8s 20 25 mph 998mb 52f 49f
10:00am 9ft 8s 20 25 mph 1000mb 52f 48f
9:00am 9ft 8s 25 29 mph 1001.4mb 52f 49f
8:00am 9.5ft 9s 25 31 mph 1002mb 52f 49f
7:00am 9.5ft 8s 20 22 mph 1003mb 52f 48f
6:00am 10.5ft 9s 22 29 mph 1003.4mb 52f 50f
5:00am 11ft 8s 22 27 mph 1003.3mb 52f 50f
4:00am 10ft 8s 20 25 mph 1003.6mb 52f 51f
3:00am 10ft 9s 25 31 mph 1003.8mb 52f 51f
2:00am 10.5ft 8s 22 29 mph 1003.7mb 52f 51f
1:00am 10ft 8s 27 31 mph 1003.1mb 52f 51f
12:00am 9.5ft 8s 22 27 mph 1002.6mb 52f 51f
Mon 11/20 11:00pm 9.5ft 8s 25 31 mph 1002.3mb 52f 51f
10:00pm 10ft 8s 25 29 mph 1002mb 52f 51f
9:00pm 9.5ft 10s 22 29 mph 1001.8mb 52f 51f
8:00pm 9ft 9s 27 31 mph 1001.9mb 52f 51f
7:00pm 8.5ft 9s 25 31 mph 1001.6mb 52f 51f
6:00pm 9ft 8s 22 27 mph 1001.4mb 52f 50f
5:00pm 8ft 8s 20 25 mph 1001.2mb 52f 49f
4:00pm 8ft 10s 22 31 mph 1000.8mb 52f 49f
3:00pm 8ft 10s 18 25 mph 1000.7mb 52f 49f
2:00pm 8ft 10s 20 22 mph 1000.4mb 52f 48f
1:00pm 8ft 10s 18 25 mph 1000.3mb 52f 47f
12:00pm 7.5ft 10s 16 22 mph 1000.6mb 52f 48f
11:00am 7.5ft 11s 18 29 mph 1000.8mb 52f 47f
10:00am 8ft 10s 18 22 mph 1000.8mb 52f 48f
9:00am 8ft 8s 18 20 mph 1001mb 52f 47f